ADDS METAR Data INFO
IDs: Format: Raw Decoded Include TAF

Data at: 0329 UTC 19 Feb 2018

KIZG 190254Z AUTO 09003KT 10SM CLR M05/M08 A3047 RMK AO2 SLP324 T10501083 51026
KIZG 190154Z AUTO 26004KT 10SM CLR M02/M07 A3046 RMK AO2 SLP320 T10221072
KIZG 190054Z AUTO 26003KT 10SM CLR M03/M07 A3041 RMK AO2 SLP307 T10331072
KIZG 182354Z AUTO 27005KT 10SM CLR 01/M07 A3039 RMK AO2 SLP298 T00111072 10044 20006 53043
KIZG 182254Z AUTO 26008KT 220V290 10SM FEW055 01/M07 A3035 RMK AO2 SLP283 T00111072 $
KIZG 182154Z AUTO 29008G15KT 10SM CLR 02/M07 A3030 RMK AO2 SLP267 T00171072 $
KIZG 182054Z AUTO 27008KT 220V300 10SM FEW050 03/M07 A3026 RMK AO2 PRESRR SLP253 T00331072 53040 $
KIZG 181954Z AUTO 30009KT 10SM CLR 04/M07 A3022 RMK AO2 SLP241 T00391067 $
KIZG 181854Z AUTO 33005KT 10SM CLR 04/M07 A3016 RMK AO2 PRESRR SLP218 T00391067 $
KIZG 181754Z AUTO 30012G21KT 10SM CLR 03/M07 A3014 RMK AO2 SLP213 60000 I6002 T00331067 10033 21044 50015 $
KIZG 181654Z AUTO 28012G18KT 10SM CLR 03/M07 A3015 RMK AO2 SLP218 T00281067 $
KIZG 181554Z AUTO 28011G18KT 10SM FEW040 02/M06 A3014 RMK AO2 SLP212 T00171061 $
KIZG 181454Z AUTO 30013G24KT 8SM 01/M04 A3010 RMK AO2 SNB34E54 SLP198 P0000 60000 I1000 I3002 T00061039 53035 $
KIZG 181354Z AUTO 00000KT 10SM CLR M01/M02 A3005 RMK AO2 SLP182 I1002 T10111022
KIZG 181254Z AUTO 00000KT 10SM CLR M03/M03 A3002 RMK AO2 SLP173 T10331033
KIZG 181154Z AUTO 00000KT 10SM SCT055 BKN080 OVC100 M04/M04 A2999 RMK AO2 SNE39 SLP162 P0000 60015 70020 T10391039 11033 21039 53014
KIZG 181107Z AUTO 00000KT 5SM -SN BR OVC035 M03/M03 A2997 RMK AO2 P0000 T10331033
KIZG 181054Z AUTO 00000KT 3SM -SN BR OVC027 M03/M03 A2996 RMK AO2 SLP152 P0001 T10331033
KIZG 181051Z AUTO 00000KT 2 1/2SM -SN BR OVC025 M03/M03 A2996 RMK AO2 P0001
KIZG 181033Z AUTO 00000KT 1 1/2SM -SN BR OVC017 M03/M04 A2995 RMK AO2 P0001 T10331039
KIZG 181020Z AUTO 00000KT 1 1/4SM -SN BR OVC018 M03/M03 A2995 RMK AO2 P0000 T10331033
KIZG 180954Z AUTO 00000KT 1 1/2SM -SN BR OVC018 M04/M04 A2995 RMK AO2 SLP148 P0002 T10391039
KIZG 180911Z AUTO 00000KT 1 1/2SM -SN BR OVC015 M04/M04 A2994 RMK AO2 P0000 T10391039
KIZG 180854Z AUTO 00000KT 1SM -SN BR VV013 M04/M04 A2994 RMK AO2 SLP144 P0004 60012 T10391039 56032
KIZG 180756Z AUTO 00000KT 1SM -SN BR VV010 M03/M03 A2996 RMK AO2 P0000 T10331033
KIZG 180754Z AUTO 00000KT 3/4SM -SN BR VV009 M03/M03 A2996 RMK AO2 SLP150 P0005 T10331033
KIZG 180713Z AUTO 00000KT 3/4SM -SN BR VV009 M03/M03 A2998 RMK AO2 P0002 T10331033
KIZG 180654Z AUTO 00000KT 3/4SM -SN BR VV011 M04/M04 A2999 RMK AO2 SLP163 P0003 T10391039
KIZG 180607Z AUTO 00000KT 1SM -SN BR VV011 M04/M04 A3002 RMK AO2 P0000 T10391039
KIZG 180554Z AUTO 00000KT 3/4SM -SN BR VV010 M04/M04 A3003 RMK AO2 SLP177 P0003 60005 T10391039 11022 21039 58029
KIZG 180551Z AUTO 00000KT 3/4SM -SN BR VV009 M04/M04 A3004 RMK AO2 PRESFR P0003
KIZG 180454Z AUTO 00000KT 1SM -SN BR VV014 M04/M04 A3008 RMK AO2 SLP193 P0002 T10391039 400111122
KIZG 180436Z AUTO 00000KT 1 1/4SM -SN BR OVC016 M03/M04 A3009 RMK AO2 P0001 T10331039
KIZG 180410Z AUTO 00000KT 1 1/2SM -SN BR SCT011 OVC018 M04/M04 A3011 RMK AO2 P0000 T10391039
KIZG 180401Z AUTO 00000KT 1 1/4SM -SN BR BKN013 OVC018 M03/M04 A3011 RMK AO2 P0000 T10331039
KIZG 180354Z AUTO 00000KT 1SM -SN BR VV015 M03/M04 A3012 RMK AO2 SNB34 SLP205 P0000 T10331044
KIZG 180344Z AUTO 19003KT 1 3/4SM -SN BKN018 OVC044 M03/M06 A3013 RMK AO2 SNB34 P0000 T10281061
KIZG 180339Z AUTO 00000KT 4SM -SN BKN020 BKN026 OVC046 M03/M07 A3013 RMK AO2 SNB34 P0000 T10281072
KIZG 180254Z AUTO 00000KT 10SM SCT050 BKN070 OVC100 M02/M08 A3015 RMK AO2 SLP215 T10221078 58029
KIZG 180154Z AUTO 00000KT 10SM SCT030 OVC100 M02/M09 A3018 RMK AO2 SLP229 T10221089
KIZG 180054Z AUTO 17004KT 10SM BKN110 M02/M09 A3021 RMK AO2 SLP237 T10221089
KIZG 172354Z AUTO 17007KT 10SM CLR M02/M09 A3023 RMK AO2 SLP247 T10221094 10011 21022 56013
KIZG 172254Z AUTO VRB06KT 10SM CLR M02/M10 A3024 RMK AO2 SLP250 T10171100
KIZG 172154Z AUTO 17008KT 10SM CLR M01/M11 A3025 RMK AO2 SLP253 T10111111
KIZG 172054Z AUTO 20003KT 10SM CLR 01/M17 A3027 RMK AO2 SLP258 T00061167 56001
KIZG 171954Z AUTO 21006KT 10SM CLR 01/M16 A3028 RMK AO2 SLP261 T00061161
KIZG 171854Z AUTO 18006KT 10SM CLR 01/M17 A3026 RMK AO2 SLP253 T00111172
KIZG 171754Z AUTO 09007KT 10SM CLR M01/M14 A3028 RMK AO2 SLP259 T10061139 10000 21117 58027
KIZG 171654Z AUTO 00000KT 10SM CLR M01/M17 A3032 RMK AO2 SLP274 T10111172
KIZG 171554Z AUTO 00000KT 10SM CLR M02/M19 A3034 RMK AO2 SLP283 T10171189